Terminal Aerodrome Forecast
Issued by NWS Mt. Holly, NJ

Home | Current Version | Previous Version | Text Only | Print | Product List | Glossary On
Versions: 1 2 3 4 5 6 7 8 9 10 11 12 13 14 15 16 17 18 19 20 21 22 23 24
000
FTUS41 KPHI 012300
TAFABE
TAF
KABE 012340Z 0200/0224 21005KT P6SM FEW050 SCT100
     FM020900 VRB02KT 6SM BR SCT100
      TEMPO 0210/0212 3SM BR
     FM021300 25007KT P6SM SCT100
     FM021900 23011KT P6SM SCT060 BKN150 PROB30 0220/0224 -SHRA
      BKN040=

USA.gov is the U.S. government's official web portal to all federal, state and local government web resources and services.